Terminal Aerodrome Forecast
Issued by NWS

Home | Current Version | Previous Version | Text Only | Print | Product List | Glossary On
Versions: 1 2 3 4 5 6 7 8 9 10 11 12 13 14 15 16 17 18 19 20 21 22 23
085
FTUS43 KGRB 212340
TAFMTW
TAF
KMTW 212340Z 2200/2224 VRB03KT P6SM VCSH SCT040 BKN080
     FM220300 VRB03KT P6SM VCTS SCT010 OVC025CB
      TEMPO 2203/2207 3SM -SHRA BR BKN010
     FM220700 VRB03KT 4SM SHRA VCTS BKN025CB
     FM221500 VRB03KT P6SM VCSH SCT015 OVC090
     FM222100 02008KT P6SM VCSH BKN025 OVC040=

USA.gov is the U.S. government's official web portal to all federal, state and local government web resources and services.